Terminal Aerodrome Forecast
Issued by NWS

Home | Current Version | Previous Version | Text Only | Print | Product List | Glossary Off
Versions: 1 2 3 4 5 6 7 8 9 10 11 12 13 14 15 16 17 18 19 20 21 22 23 24

000
FTUS43 KLOT 052056 AAA
TAFGYY
TAF AMD
KGYY 052056Z 0521/0618 21005KT P6SM OVC004
     FM060200 14007KT 3SM BR OVC005
      TEMPO 0606/0610 1/2SM FG
     FM061700 25007KT P6SM OVC015=

USA.gov is the U.S. government's official web portal to all federal, state and local government web resources and services.